Terminal Aerodrome Forecast
Issued by NWS Lake Charles, LA

Home | Current Version | Previous Version | Text Only | Print | Product List | Glossary On
Versions: 1 2 3 4 5 6 7 8 9 10 11 12 13 14 15 16 17 18 19 20 21
525
FTUS44 KLCH 241720
TAFBPT
TAF
KBPT 241720Z 2418/2518 15015G23KT P6SM SCT018 BKN025
      TEMPO 2420/2424 SCT025 BKN035
     FM250100 15010KT P6SM BKN015
      TEMPO 2510/2514 BKN008 OVC015
     FM251500 15014G22KT P6SM BKN018=

USA.gov is the U.S. government's official web portal to all federal, state and local government web resources and services.